Time;durP1;ratioP1;P1;durP2;ratioP2;P2;SDS_P1;SDS_P2;PMS_P1;PMS_P2;Temp;Humidity;BMP_temperature;BMP_pressure;BME280_temperature;BME280_humidity;BME280_pressure;Samples;Min_cycle;Max_cycle;Signal;HPM_P1;HPM_P2
2022/01/07 00:02:09;;;;;;;2.13;1.40;;;2.40;63.20;;;;;;5032726;28;20406;-84
2022/01/07 00:04:36;;;;;;;3.43;1.60;;;2.40;63.30;;;;;;5031011;28;20087;-84
2022/01/07 00:07:04;;;;;;;3.33;0.93;;;2.40;63.00;;;;;;5046136;28;20033;-84
2022/01/07 00:09:32;;;;;;;3.43;1.50;;;2.40;63.10;;;;;;5030960;28;20452;-83
2022/01/07 00:11:58;;;;;;;3.20;1.33;;;2.40;63.10;;;;;;5029926;28;20045;-83
2022/01/07 00:14:23;;;;;;;2.47;1.30;;;2.30;63.10;;;;;;5045940;28;20061;-84
2022/01/07 00:16:49;;;;;;;4.57;1.40;;;2.30;63.20;;;;;;5029534;28;20515;-83
2022/01/07 00:19:15;;;;;;;4.10;1.70;;;2.30;63.40;;;;;;5043111;28;20488;-83
2022/01/07 00:21:42;;;;;;;3.87;1.77;;;2.30;63.30;;;;;;5030080;28;20059;-84
2022/01/07 00:24:08;;;;;;;3.73;1.40;;;2.20;63.40;;;;;;5047214;28;20116;-84
2022/01/07 00:26:34;;;;;;;3.63;1.77;;;2.20;63.40;;;;;;5028877;28;20053;-84
2022/01/07 00:28:59;;;;;;;5.63;1.60;;;2.20;63.30;;;;;;5032428;28;20464;-84
2022/01/07 00:31:25;;;;;;;4.60;1.63;;;2.20;63.40;;;;;;5045902;28;20036;-84
2022/01/07 00:33:52;;;;;;;3.87;1.30;;;2.20;63.40;;;;;;5031268;28;20104;-83
2022/01/07 00:36:19;;;;;;;5.37;1.70;;;2.20;63.50;;;;;;5027572;28;20034;-84
2022/01/07 00:38:45;;;;;;;3.90;2.17;;;2.20;63.40;;;;;;5027676;28;20068;-84
2022/01/07 00:41:11;;;;;;;4.67;1.87;;;2.10;63.30;;;;;;5047351;28;20056;-84
2022/01/07 00:43:36;;;;;;;3.80;1.13;;;2.10;63.50;;;;;;5031176;28;20034;-83
2022/01/07 00:46:02;;;;;;;3.87;1.70;;;2.00;63.40;;;;;;5030010;28;20040;-83
2022/01/07 00:48:28;;;;;;;2.73;1.27;;;2.00;63.40;;;;;;5027228;28;20497;-83
2022/01/07 00:50:54;;;;;;;4.23;1.43;;;2.00;63.50;;;;;;5029092;28;20115;-84
2022/01/07 00:53:20;;;;;;;5.27;1.63;;;2.00;63.40;;;;;;5039021;28;20041;-84
2022/01/07 00:55:46;;;;;;;3.37;1.57;;;2.00;63.60;;;;;;5029401;28;20026;-84
2022/01/07 00:58:11;;;;;;;3.17;1.67;;;2.00;63.50;;;;;;5031673;28;20029;-83
2022/01/07 01:00:37;;;;;;;3.53;1.20;;;2.00;63.50;;;;;;5044361;28;20025;-83
2022/01/07 01:03:04;;;;;;;3.87;1.67;;;2.00;63.50;;;;;;5022578;28;20498;-83
2022/01/07 01:05:30;;;;;;;3.97;1.63;;;1.90;63.20;;;;;;5032485;28;20034;-83
2022/01/07 01:07:56;;;;;;;4.33;1.80;;;1.90;63.30;;;;;;5029222;28;20056;-84
2022/01/07 01:10:24;;;;;;;4.60;1.87;;;1.90;64.00;;;;;;5036980;28;20025;-83
2022/01/07 01:12:51;;;;;;;2.60;1.60;;;1.90;63.50;;;;;;5030161;28;20032;-84
2022/01/07 01:15:21;;;;;;;5.43;1.73;;;1.80;63.60;;;;;;5028242;28;20542;-83
2022/01/07 01:17:48;;;;;;;3.73;1.80;;;1.80;63.80;;;;;;5029098;28;20499;-83
2022/01/07 01:20:14;;;;;;;3.07;1.50;;;1.80;63.80;;;;;;5028675;28;20037;-83
2022/01/07 01:22:40;;;;;;;3.50;2.07;;;1.80;63.80;;;;;;5029301;28;20487;-84
2022/01/07 01:25:07;;;;;;;2.63;1.10;;;1.80;63.70;;;;;;5046301;28;20040;-83
2022/01/07 01:27:33;;;;;;;2.37;1.10;;;1.70;63.50;;;;;;5046612;28;20071;-83
2022/01/07 01:30:01;;;;;;;2.17;1.27;;;1.70;63.80;;;;;;5045398;28;20087;-83
2022/01/07 01:32:27;;;;;;;2.50;1.47;;;1.70;63.70;;;;;;5044147;28;20540;-83
2022/01/07 01:34:52;;;;;;;3.00;1.50;;;1.70;63.60;;;;;;5028832;28;20083;-83
2022/01/07 01:37:18;;;;;;;2.20;1.23;;;1.60;63.60;;;;;;5040778;28;20405;-83
2022/01/07 01:39:44;;;;;;;1.87;1.03;;;1.60;63.60;;;;;;5041170;28;20037;-83
2022/01/07 01:42:10;;;;;;;3.77;1.47;;;1.60;63.50;;;;;;5029366;28;20037;-83
2022/01/07 01:44:35;;;;;;;4.97;1.73;;;1.60;63.50;;;;;;5032238;28;20482;-83
2022/01/07 01:47:02;;;;;;;2.53;1.20;;;1.60;63.50;;;;;;5028433;28;20065;-83
2022/01/07 01:49:29;;;;;;;3.30;2.30;;;1.60;63.40;;;;;;5044938;28;20076;-83
2022/01/07 01:51:54;;;;;;;3.13;1.73;;;1.60;63.50;;;;;;5026525;28;20025;-83
2022/01/07 01:54:20;;;;;;;2.43;1.27;;;1.60;63.50;;;;;;5045636;28;20087;-83
2022/01/07 01:56:47;;;;;;;3.03;1.10;;;1.60;63.40;;;;;;5029917;28;20025;-83
2022/01/07 01:59:13;;;;;;;2.70;1.03;;;1.60;63.20;;;;;;5042823;28;20090;-83
2022/01/07 02:01:40;;;;;;;2.50;1.47;;;1.60;63.10;;;;;;5047778;28;20041;-83
2022/01/07 02:04:07;;;;;;;1.67;0.87;;;1.60;62.90;;;;;;5031261;28;20094;-83
2022/01/07 02:06:34;;;;;;;2.70;0.90;;;1.50;62.90;;;;;;5028410;28;20778;-84
2022/01/07 02:09:04;;;;;;;3.63;1.30;;;1.50;63.20;;;;;;5045299;28;20060;-83
2022/01/07 02:11:32;;;;;;;1.90;1.10;;;1.50;63.40;;;;;;5030433;28;20318;-83
2022/01/07 02:13:58;;;;;;;2.13;0.90;;;1.50;63.30;;;;;;5029054;28;20087;-84
2022/01/07 02:16:28;;;;;;;2.77;1.17;;;1.50;63.20;;;;;;5042352;28;20544;-84
2022/01/07 02:18:54;;;;;;;3.73;1.10;;;1.50;63.50;;;;;;5042720;28;20040;-84
2022/01/07 02:21:20;;;;;;;1.30;0.80;;;1.50;63.30;;;;;;5027844;28;20604;-83
2022/01/07 02:23:45;;;;;;;2.57;1.03;;;1.40;63.10;;;;;;5044504;28;20127;-83
2022/01/07 02:26:12;;;;;;;2.97;1.00;;;1.40;63.10;;;;;;5032499;28;20459;-84
2022/01/07 02:28:40;;;;;;;4.00;0.93;;;1.40;63.10;;;;;;5036367;28;20018;-84
2022/01/07 02:31:05;;;;;;;3.87;1.30;;;1.40;63.10;;;;;;5051216;28;20472;-83
2022/01/07 02:33:31;;;;;;;3.33;1.20;;;1.50;63.10;;;;;;5035365;28;20082;-83
2022/01/07 02:35:57;;;;;;;1.70;1.10;;;1.40;62.90;;;;;;5035302;28;20072;-83
2022/01/07 02:38:23;;;;;;;3.17;1.00;;;1.40;62.70;;;;;;5051711;28;20036;-83
2022/01/07 02:40:49;;;;;;;1.43;0.90;;;1.30;62.70;;;;;;5033767;28;20480;-82
2022/01/07 02:43:15;;;;;;;2.87;1.00;;;1.40;62.50;;;;;;5050461;28;20037;-83
2022/01/07 02:45:41;;;;;;;1.27;0.67;;;1.30;62.30;;;;;;5033702;28;20435;-83
2022/01/07 02:48:07;;;;;;;3.37;1.10;;;1.30;62.30;;;;;;5032506;28;20033;-83
2022/01/07 02:50:35;;;;;;;2.07;1.10;;;1.40;62.30;;;;;;5049049;28;20033;-83
2022/01/07 02:53:04;;;;;;;4.40;1.50;;;1.40;62.00;;;;;;5049267;28;20415;-83
2022/01/07 02:55:29;;;;;;;1.40;0.97;;;1.30;62.00;;;;;;5032300;28;20442;-83
2022/01/07 02:57:55;;;;;;;2.70;1.00;;;1.30;61.90;;;;;;5032552;28;20017;-84
2022/01/07 03:00:22;;;;;;;1.30;0.90;;;1.20;61.90;;;;;;5044862;28;20033;-84
2022/01/07 03:02:49;;;;;;;1.17;0.80;;;1.20;62.10;;;;;;5048507;28;20050;-83
2022/01/07 03:05:17;;;;;;;4.30;1.40;;;1.20;62.00;;;;;;5048550;28;20124;-83
2022/01/07 03:07:44;;;;;;;4.53;0.90;;;1.20;61.90;;;;;;5033372;28;20065;-83
2022/01/07 03:10:10;;;;;;;4.70;0.80;;;1.20;61.80;;;;;;5033244;28;20013;-83
2022/01/07 03:12:37;;;;;;;2.03;1.00;;;1.20;61.80;;;;;;5031215;28;20468;-84
2022/01/07 03:15:05;;;;;;;2.23;0.80;;;1.10;61.80;;;;;;5048855;28;20037;-83
2022/01/07 03:17:31;;;;;;;1.40;0.93;;;1.10;61.90;;;;;;5032528;28;20130;-83
2022/01/07 03:19:56;;;;;;;2.73;1.17;;;1.00;61.90;;;;;;5048992;28;20079;-83
2022/01/07 03:22:22;;;;;;;2.70;1.10;;;1.00;62.10;;;;;;5029164;28;20034;-83
2022/01/07 03:24:48;;;;;;;1.57;0.70;;;1.00;62.00;;;;;;5041026;28;20060;-83
2022/01/07 03:27:14;;;;;;;2.10;0.80;;;1.00;61.90;;;;;;5031986;28;20083;-83
2022/01/07 03:29:39;;;;;;;1.47;0.90;;;1.00;62.50;;;;;;5048187;28;20022;-83
2022/01/07 03:32:06;;;;;;;1.43;0.80;;;1.00;61.90;;;;;;5046978;28;20030;-83
2022/01/07 03:34:31;;;;;;;1.77;0.80;;;0.90;61.80;;;;;;5029254;28;20461;-83
2022/01/07 03:36:57;;;;;;;2.73;1.00;;;0.70;61.90;;;;;;5032018;28;20366;-83
2022/01/07 03:39:23;;;;;;;1.67;0.93;;;0.70;62.40;;;;;;5031323;28;20123;-83
2022/01/07 03:41:49;;;;;;;1.47;0.90;;;0.70;62.60;;;;;;5047727;28;20125;-83
2022/01/07 03:44:15;;;;;;;5.37;1.00;;;0.70;62.80;;;;;;5031239;28;20551;-83
2022/01/07 03:46:40;;;;;;;2.83;1.20;;;0.80;62.70;;;;;;5046879;28;20116;-83
2022/01/07 03:49:06;;;;;;;2.63;1.13;;;0.80;62.50;;;;;;5047805;28;20021;-83
2022/01/07 03:51:32;;;;;;;2.90;1.70;;;0.80;62.60;;;;;;5047317;28;20087;-83
2022/01/07 03:53:57;;;;;;;4.63;2.70;;;0.80;62.50;;;;;;5025611;28;20053;-83
2022/01/07 03:56:23;;;;;;;6.00;3.20;;;0.80;62.70;;;;;;5047104;28;20033;-83
2022/01/07 03:58:49;;;;;;;4.33;2.30;;;0.80;62.90;;;;;;5036913;28;20053;-83
2022/01/07 04:01:16;;;;;;;5.23;2.00;;;0.80;63.10;;;;;;5049693;28;20041;-83
2022/01/07 04:03:41;;;;;;;3.57;2.10;;;0.80;63.00;;;;;;5043545;28;20396;-83
2022/01/07 04:06:07;;;;;;;2.10;1.37;;;0.90;63.10;;;;;;5032573;28;20040;-83
2022/01/07 04:08:33;;;;;;;2.27;1.20;;;0.80;63.00;;;;;;5029743;28;20022;-83
2022/01/07 04:10:59;;;;;;;1.87;1.30;;;0.80;63.10;;;;;;5047512;28;20075;-83
2022/01/07 04:13:25;;;;;;;2.63;1.30;;;0.90;63.20;;;;;;5026438;28;20116;-83
2022/01/07 04:15:50;;;;;;;3.03;1.30;;;0.90;63.10;;;;;;5032255;28;20034;-83
2022/01/07 04:18:16;;;;;;;3.17;1.63;;;0.90;63.20;;;;;;5044757;28;20503;-83
2022/01/07 04:20:42;;;;;;;4.30;1.87;;;0.90;63.10;;;;;;5043183;28;20030;-83
2022/01/07 04:23:08;;;;;;;6.27;1.90;;;1.00;63.10;;;;;;5030205;28;20036;-83
2022/01/07 04:25:34;;;;;;;3.23;1.50;;;1.00;63.10;;;;;;5027262;28;20018;-83
2022/01/07 04:28:03;;;;;;;2.60;1.07;;;1.00;63.10;;;;;;5045543;28;20040;-83
2022/01/07 04:30:34;;;;;;;1.97;1.23;;;1.00;63.20;;;;;;5039768;28;20022;-83
2022/01/07 04:33:02;;;;;;;3.83;1.30;;;0.90;63.00;;;;;;5032234;28;20787;-83
2022/01/07 04:35:28;;;;;;;3.03;1.37;;;0.90;63.30;;;;;;5029535;28;20487;-83
2022/01/07 04:37:54;;;;;;;4.30;1.50;;;0.90;63.30;;;;;;5030802;28;20120;-83
2022/01/07 04:40:21;;;;;;;1.67;1.00;;;0.80;63.10;;;;;;5046597;28;20032;-83
2022/01/07 04:42:46;;;;;;;3.83;1.10;;;0.80;63.20;;;;;;5030371;28;20091;-83
2022/01/07 04:45:12;;;;;;;2.97;1.47;;;0.80;63.30;;;;;;5029499;28;20033;-83
2022/01/07 04:47:40;;;;;;;3.13;1.20;;;0.80;63.40;;;;;;5045379;28;20037;-83
2022/01/07 04:50:10;;;;;;;2.90;1.43;;;0.90;63.30;;;;;;5013447;28;20032;-83
2022/01/07 04:52:38;;;;;;;3.73;0.90;;;0.90;63.30;;;;;;5019914;28;20038;-83
2022/01/07 04:55:05;;;;;;;3.50;1.80;;;0.90;63.20;;;;;;5027870;28;20825;-83
2022/01/07 04:57:30;;;;;;;1.73;1.00;;;0.80;63.10;;;;;;5030134;28;20466;-83
2022/01/07 04:59:57;;;;;;;1.90;1.00;;;0.80;63.30;;;;;;5046197;28;20116;-83
2022/01/07 05:02:23;;;;;;;2.43;1.23;;;0.80;63.30;;;;;;5029144;28;20037;-83
2022/01/07 05:04:49;;;;;;;4.10;1.47;;;0.80;63.50;;;;;;5047353;28;20294;-83
2022/01/07 05:07:16;;;;;;;2.23;1.07;;;0.80;63.60;;;;;;5046087;28;20492;-83
2022/01/07 05:09:42;;;;;;;3.23;1.73;;;0.80;63.60;;;;;;5046293;28;20076;-83
2022/01/07 05:12:08;;;;;;;7.20;4.63;;;0.90;63.60;;;;;;5010667;28;20021;-83
2022/01/07 05:14:34;;;;;;;10.87;4.60;;;0.80;63.50;;;;;;5039309;28;20033;-83
2022/01/07 05:17:00;;;;;;;20.43;9.27;;;0.80;63.50;;;;;;5029716;28;20044;-83
2022/01/07 05:19:26;;;;;;;5.03;2.20;;;0.80;63.60;;;;;;5030599;28;20049;-83
2022/01/07 05:21:51;;;;;;;2.37;1.20;;;0.80;63.50;;;;;;5020156;28;20053;-83
2022/01/07 05:24:17;;;;;;;3.97;1.53;;;0.80;63.50;;;;;;5028364;28;20033;-83
2022/01/07 05:26:43;;;;;;;5.37;1.97;;;0.80;63.30;;;;;;5021827;28;20389;-83
2022/01/07 05:29:09;;;;;;;3.63;1.23;;;0.80;63.30;;;;;;5046895;28;20491;-83
2022/01/07 05:31:35;;;;;;;6.77;3.17;;;0.80;63.10;;;;;;5027826;28;20037;-83
2022/01/07 05:34:00;;;;;;;5.63;3.00;;;0.80;63.10;;;;;;5028102;28;20491;-83
2022/01/07 05:36:26;;;;;;;6.00;2.87;;;0.80;63.10;;;;;;5046252;28;20029;-83
2022/01/07 05:38:52;;;;;;;7.70;2.97;;;0.70;63.00;;;;;;5038322;28;20029;-83
2022/01/07 05:41:19;;;;;;;5.47;2.60;;;0.70;62.80;;;;;;5045502;28;20025;-83
2022/01/07 05:43:46;;;;;;;3.33;2.00;;;0.70;62.80;;;;;;5044694;28;20500;-83
2022/01/07 05:46:14;;;;;;;5.13;1.90;;;0.70;62.70;;;;;;5029566;28;20026;-83
2022/01/07 05:48:42;;;;;;;5.30;2.30;;;0.60;62.50;;;;;;5031262;28;20021;-83
2022/01/07 05:51:08;;;;;;;3.87;1.53;;;0.60;62.60;;;;;;5046071;28;20391;-83
2022/01/07 05:53:33;;;;;;;4.73;2.10;;;0.50;62.70;;;;;;5029656;28;20096;-83
2022/01/07 05:55:59;;;;;;;3.57;2.10;;;0.50;62.80;;;;;;5045308;28;20049;-83
2022/01/07 05:58:25;;;;;;;5.27;1.80;;;0.50;62.80;;;;;;5029554;28;20049;-83
2022/01/07 06:00:50;;;;;;;3.10;1.60;;;0.50;62.60;;;;;;5031341;28;20967;-83
2022/01/07 06:03:16;;;;;;;7.13;2.83;;;0.40;62.60;;;;;;5038031;28;20032;-83
2022/01/07 06:05:42;;;;;;;6.57;3.47;;;0.40;62.90;;;;;;5053446;28;20025;-82
2022/01/07 06:08:09;;;;;;;7.20;3.00;;;0.50;62.60;;;;;;5036971;28;20017;-83
2022/01/07 06:10:35;;;;;;;5.83;3.07;;;0.50;62.50;;;;;;5053029;28;20029;-83
2022/01/07 06:13:01;;;;;;;5.87;2.60;;;0.50;62.40;;;;;;5038269;28;20268;-83
2022/01/07 06:15:27;;;;;;;5.60;2.70;;;0.50;62.30;;;;;;5036297;28;20349;-82
2022/01/07 06:17:52;;;;;;;9.27;2.70;;;0.50;62.30;;;;;;5053380;28;20400;-81
2022/01/07 06:20:19;;;;;;;6.27;2.53;;;0.60;63.00;;;;;;5033514;28;20034;-83
2022/01/07 06:22:45;;;;;;;7.93;3.80;;;0.50;62.20;;;;;;5051975;28;20043;-83
2022/01/07 06:25:11;;;;;;;5.33;3.17;;;0.60;62.20;;;;;;5036370;28;20646;-83
2022/01/07 06:27:38;;;;;;;8.63;2.50;;;0.60;62.20;;;;;;5035874;28;20033;-82
2022/01/07 06:30:06;;;;;;;3.70;1.97;;;0.60;62.30;;;;;;5036923;28;20030;-82
2022/01/07 06:32:31;;;;;;;8.07;3.60;;;0.60;62.20;;;;;;5032185;28;20030;-83
2022/01/07 06:34:57;;;;;;;10.40;5.30;;;0.50;62.20;;;;;;5050875;28;20441;-82
2022/01/07 06:37:23;;;;;;;11.03;4.17;;;0.50;62.40;;;;;;5046943;28;20040;-83
2022/01/07 06:39:49;;;;;;;6.00;2.63;;;0.50;62.50;;;;;;5052337;28;20037;-82
2022/01/07 06:42:14;;;;;;;4.17;1.87;;;0.50;62.40;;;;;;5034806;28;20045;-83
2022/01/07 06:44:40;;;;;;;4.47;2.10;;;0.40;62.40;;;;;;5052168;28;20484;-83
2022/01/07 06:47:06;;;;;;;7.17;3.10;;;0.40;62.50;;;;;;5033254;28;20038;-83
2022/01/07 06:49:32;;;;;;;6.57;2.80;;;0.40;62.50;;;;;;5035091;28;20068;-82
2022/01/07 06:51:58;;;;;;;8.97;4.13;;;0.30;62.50;;;;;;5049925;28;20030;-82
2022/01/07 06:54:25;;;;;;;11.97;5.30;;;0.30;62.60;;;;;;5030881;28;20040;-82
2022/01/07 06:56:50;;;;;;;9.87;5.03;;;0.30;62.60;;;;;;5051780;28;20476;-82
2022/01/07 06:59:16;;;;;;;8.33;3.87;;;0.30;62.80;;;;;;5051639;28;20276;-82
2022/01/07 07:01:44;;;;;;;6.10;3.37;;;0.30;62.80;;;;;;5036170;28;20026;-82
2022/01/07 07:04:10;;;;;;;4.93;2.60;;;0.30;62.80;;;;;;5034840;28;20029;-83
2022/01/07 07:06:36;;;;;;;8.27;3.23;;;0.30;62.80;;;;;;5035338;28;20373;-82
2022/01/07 07:09:03;;;;;;;9.90;2.97;;;0.30;62.70;;;;;;5050882;28;20033;-83
2022/01/07 07:11:30;;;;;;;3.87;2.40;;;0.30;62.60;;;;;;5034569;28;20037;-83
2022/01/07 07:13:55;;;;;;;5.03;2.33;;;0.30;62.80;;;;;;5046234;28;20292;-82
2022/01/07 07:16:21;;;;;;;4.37;2.10;;;0.40;62.90;;;;;;5032420;28;20966;-82
2022/01/07 07:18:47;;;;;;;6.13;2.20;;;0.30;62.80;;;;;;5029029;28;20025;-83
2022/01/07 07:21:13;;;;;;;5.47;2.23;;;0.30;62.90;;;;;;5027090;28;20284;-82
2022/01/07 07:23:39;;;;;;;4.30;2.10;;;0.30;63.00;;;;;;5044673;28;20036;-83
2022/01/07 07:26:06;;;;;;;5.83;2.30;;;0.20;62.90;;;;;;5030647;28;20040;-81
2022/01/07 07:28:35;;;;;;;4.20;1.90;;;0.20;63.10;;;;;;5047680;28;20520;-82
2022/01/07 07:31:04;;;;;;;3.33;2.03;;;0.20;63.20;;;;;;5031724;28;20707;-82
2022/01/07 07:33:53;;;;;;;7.60;4.43;;;0.30;63.20;;;;;;5046754;28;20291;-82
2022/01/07 07:36:32;;;;;;;41.03;16.03;;;0.20;63.10;;;;;;5030125;28;20743;-82
2022/01/07 07:39:07;;;;;;;76.32;33.42;;;0.30;63.10;;;;;;5049175;28;20272;-82
2022/01/07 07:41:35;;;;;;;29.00;14.07;;;0.20;63.00;;;;;;5029222;28;20481;-82
2022/01/07 07:44:02;;;;;;;21.43;10.63;;;0.20;62.80;;;;;;5031512;28;20786;-83
2022/01/07 07:46:31;;;;;;;21.63;12.37;;;0.20;62.70;;;;;;5028630;28;20299;-82
2022/01/07 07:48:58;;;;;;;42.70;23.80;;;0.10;62.90;;;;;;5027115;28;20280;-82
2022/01/07 07:51:23;;;;;;;22.27;12.53;;;0.10;63.00;;;;;;5030539;28;20284;-83
2022/01/07 07:53:49;;;;;;;18.93;11.77;;;0.10;62.90;;;;;;5032314;28;20272;-82
2022/01/07 07:56:16;;;;;;;33.60;15.63;;;0.20;62.80;;;;;;5030868;28;20034;-82
2022/01/07 07:58:43;;;;;;;24.87;12.63;;;0.20;62.50;;;;;;5029774;28;20021;-83
2022/01/07 08:01:09;;;;;;;15.10;8.77;;;0.20;62.60;;;;;;5030809;28;20295;-83
2022/01/07 08:03:35;;;;;;;8.83;4.53;;;0.20;62.60;;;;;;5043138;28;20284;-82
2022/01/07 08:06:01;;;;;;;6.60;3.60;;;0.20;62.60;;;;;;5046501;28;20298;-83
2022/01/07 08:08:27;;;;;;;13.63;9.43;;;0.20;62.80;;;;;;5047853;28;20087;-82
2022/01/07 08:10:56;;;;;;;16.00;9.27;;;0.30;62.70;;;;;;5045763;28;20108;-82
2022/01/07 08:13:30;;;;;;;32.50;19.03;;;0.30;62.60;;;;;;5038744;28;20264;-82
2022/01/07 08:16:04;;;;;;;19.83;11.17;;;0.30;62.60;;;;;;5031719;28;20488;-82
2022/01/07 08:18:35;;;;;;;18.87;10.00;;;0.40;62.70;;;;;;5021206;28;20280;-82
2022/01/07 08:21:07;;;;;;;13.60;7.50;;;0.30;62.60;;;;;;5030562;28;20276;-82
2022/01/07 08:23:35;;;;;;;14.67;7.50;;;0.40;62.50;;;;;;5028049;28;20809;-82
2022/01/07 08:26:02;;;;;;;10.33;5.27;;;0.40;62.20;;;;;;5029216;28;20314;-82
2022/01/07 08:28:34;;;;;;;10.40;5.10;;;0.40;61.90;;;;;;5031605;28;20260;-82
2022/01/07 08:36:14;;;;;;;12.23;6.27;;;0.40;62.40;;;;;;5029572;28;20334;-82
2022/01/07 08:38:40;;;;;;;13.53;6.83;;;0.50;62.40;;;;;;5030647;28;20755;-83
2022/01/07 08:41:06;;;;;;;10.23;5.97;;;0.70;62.50;;;;;;5031364;28;20080;-83
2022/01/07 08:43:32;;;;;;;6.93;3.90;;;0.70;62.30;;;;;;5026518;28;20025;-83
2022/01/07 08:45:58;;;;;;;8.13;4.00;;;0.70;62.60;;;;;;5030976;28;20026;-82
2022/01/07 08:48:28;;;;;;;9.30;4.33;;;0.90;62.90;;;;;;5048065;28;20028;-83
2022/01/07 08:50:54;;;;;;;11.00;4.23;;;1.00;62.30;;;;;;5042727;28;20026;-83
2022/01/07 08:53:21;;;;;;;6.60;3.23;;;1.10;62.70;;;;;;5007263;28;20036;-82
2022/01/07 08:55:47;;;;;;;5.50;3.17;;;1.20;62.70;;;;;;5028969;28;20539;-83
2022/01/07 08:58:13;;;;;;;6.73;3.27;;;1.30;61.40;;;;;;5042039;28;20128;-82
2022/01/07 09:00:39;;;;;;;9.10;4.10;;;1.20;61.00;;;;;;5044363;28;20136;-83
2022/01/07 09:03:04;;;;;;;12.13;4.37;;;1.20;60.90;;;;;;5047045;28;20087;-83
2022/01/07 09:05:30;;;;;;;7.10;3.77;;;1.30;61.10;;;;;;5040589;28;20082;-83
2022/01/07 09:07:57;;;;;;;8.33;3.90;;;1.30;60.90;;;;;;5029649;28;20546;-83
2022/01/07 09:10:26;;;;;;;6.13;2.60;;;1.30;60.70;;;;;;5029617;28;20021;-81
2022/01/07 09:12:53;;;;;;;7.43;2.50;;;1.40;60.30;;;;;;5032653;28;20021;-82
2022/01/07 09:15:19;;;;;;;7.00;2.80;;;1.30;60.10;;;;;;5044364;28;20504;-81
2022/01/07 09:17:45;;;;;;;4.17;2.27;;;1.40;60.00;;;;;;5031613;28;20538;-82
2022/01/07 09:20:11;;;;;;;5.70;2.00;;;1.40;59.90;;;;;;5032156;28;20022;-83
2022/01/07 09:22:38;;;;;;;11.87;2.40;;;1.50;59.70;;;;;;5047663;28;20080;-83
2022/01/07 09:25:05;;;;;;;4.27;1.70;;;1.50;59.60;;;;;;5048448;28;20025;-83
2022/01/07 09:27:33;;;;;;;3.00;1.50;;;1.60;59.40;;;;;;5045987;28;20116;-82
2022/01/07 09:29:58;;;;;;;3.70;1.40;;;1.70;59.30;;;;;;5029095;28;20034;-82
2022/01/07 09:32:24;;;;;;;2.87;1.60;;;1.90;58.90;;;;;;5031517;28;20188;-82
2022/01/07 09:34:50;;;;;;;3.40;1.63;;;1.90;58.80;;;;;;5016262;28;20706;-83
2022/01/07 09:37:16;;;;;;;4.03;1.80;;;2.10;58.50;;;;;;5012132;28;20029;-83
2022/01/07 09:39:42;;;;;;;4.83;1.60;;;2.20;58.10;;;;;;5020695;28;20034;-83
2022/01/07 09:42:08;;;;;;;3.80;2.00;;;2.30;58.00;;;;;;5047143;28;20026;-83
2022/01/07 09:44:40;;;;;;;4.47;2.13;;;2.30;57.90;;;;;;5032581;28;20037;-84
2022/01/07 09:47:10;;;;;;;6.27;2.47;;;2.50;57.80;;;;;;5021519;28;20061;-84
2022/01/07 09:49:40;;;;;;;5.73;2.20;;;2.60;57.80;;;;;;5032281;28;20017;-85
2022/01/07 09:52:07;;;;;;;4.23;2.30;;;2.70;57.40;;;;;;5048489;28;20539;-84
2022/01/07 09:54:34;;;;;;;5.27;2.33;;;2.90;57.20;;;;;;5046350;28;20454;-84
2022/01/07 09:57:06;;;;;;;11.33;3.03;;;2.90;57.00;;;;;;5047198;28;20052;-85
2022/01/07 09:59:34;;;;;;;6.97;3.30;;;3.00;56.90;;;;;;5067261;28;20420;-85
2022/01/07 10:02:03;;;;;;;8.63;3.60;;;3.10;56.90;;;;;;5051246;28;20021;-85
2022/01/07 10:04:34;;;;;;;10.23;3.47;;;3.20;56.90;;;;;;5051652;28;20164;-84
2022/01/07 10:07:14;;;;;;;5.87;3.17;;;3.30;56.50;;;;;;5051760;28;20074;-85
2022/01/07 10:09:41;;;;;;;6.67;3.07;;;3.40;56.50;;;;;;5067187;28;20060;-85
2022/01/07 10:12:08;;;;;;;11.07;3.90;;;3.60;56.60;;;;;;5054015;28;20022;-84
2022/01/07 10:14:36;;;;;;;6.17;2.77;;;3.90;56.00;;;;;;5029694;28;20053;-84
2022/01/07 10:17:03;;;;;;;4.23;2.23;;;4.00;55.60;;;;;;5030026;28;20453;-84
2022/01/07 10:19:32;;;;;;;4.73;2.40;;;4.10;55.30;;;;;;5030191;28;20061;-84
2022/01/07 10:22:14;;;;;;;6.00;2.63;;;4.20;55.10;;;;;;5029720;28;20034;-85
2022/01/07 10:24:59;;;;;;;12.60;2.30;;;4.30;54.90;;;;;;5030214;28;20095;-84
2022/01/07 10:27:33;;;;;;;4.00;2.10;;;4.40;54.20;;;;;;5047206;28;20033;-85
2022/01/07 10:29:59;;;;;;;5.87;1.83;;;4.60;54.50;;;;;;5031508;28;20063;-85
2022/01/07 10:32:30;;;;;;;3.30;1.60;;;4.70;54.10;;;;;;5030810;28;20030;-85
2022/01/07 10:35:14;;;;;;;5.07;1.97;;;4.90;53.70;;;;;;5031416;28;20392;-85
2022/01/07 10:38:02;;;;;;;3.53;2.00;;;5.10;53.20;;;;;;5029377;28;20026;-85
2022/01/07 10:40:36;;;;;;;5.83;2.20;;;5.10;52.50;;;;;;5012811;28;20033;-85
2022/01/07 10:43:22;;;;;;;3.83;2.27;;;5.10;52.50;;;;;;5029981;28;20048;-85
2022/01/07 10:45:55;;;;;;;6.23;2.37;;;5.30;52.30;;;;;;5046935;28;20036;-85
2022/01/07 10:48:39;;;;;;;10.13;2.57;;;5.30;52.20;;;;;;5049753;28;20029;-85
2022/01/07 10:51:18;;;;;;;6.77;2.73;;;5.40;52.00;;;;;;5033489;28;20033;-85
2022/01/07 10:53:52;;;;;;;11.50;2.87;;;5.60;52.00;;;;;;5033845;28;20029;-85
2022/01/07 10:56:23;;;;;;;4.07;2.17;;;5.70;51.40;;;;;;5050679;28;20071;-85
2022/01/07 10:58:55;;;;;;;3.27;1.90;;;5.80;51.50;;;;;;5037782;28;20021;-85
2022/01/07 11:01:34;;;;;;;6.43;2.00;;;5.90;50.80;;;;;;5046627;28;20033;-85
2022/01/07 11:04:01;;;;;;;6.03;1.70;;;6.00;50.70;;;;;;5034943;28;20029;-85
2022/01/07 11:06:28;;;;;;;2.73;1.47;;;6.00;50.60;;;;;;5034477;28;20373;-85
2022/01/07 11:08:56;;;;;;;3.00;1.37;;;6.10;50.20;;;;;;5034489;28;20029;-86
2022/01/07 11:11:24;;;;;;;7.17;2.00;;;6.10;50.00;;;;;;5034701;28;20021;-86
2022/01/07 11:13:50;;;;;;;3.53;1.80;;;6.00;49.70;;;;;;5018038;28;20037;-85
2022/01/07 11:16:17;;;;;;;4.50;2.27;;;6.00;49.70;;;;;;5034195;28;20459;-85
2022/01/07 11:18:44;;;;;;;3.10;1.83;;;6.20;49.60;;;;;;5034258;28;20025;-86
2022/01/07 11:21:11;;;;;;;6.17;1.80;;;6.20;49.20;;;;;;5034160;28;20736;-86
2022/01/07 11:23:38;;;;;;;3.17;1.20;;;6.20;48.90;;;;;;5034258;28;20105;-85
2022/01/07 11:26:06;;;;;;;6.40;2.40;;;6.20;48.60;;;;;;5034503;28;20049;-84
2022/01/07 11:28:33;;;;;;;11.87;1.67;;;6.20;48.20;;;;;;5015810;28;20026;-85
2022/01/07 11:31:26;;;;;;;4.03;1.30;;;6.20;48.00;;;;;;5014439;28;20018;-86
2022/01/07 11:34:19;;;;;;;3.03;1.38;;;6.20;47.50;;;;;;5013619;28;20054;-85
2022/01/07 11:36:46;;;;;;;3.00;1.50;;;6.10;47.70;;;;;;5030946;28;20127;-85
2022/01/07 11:39:12;;;;;;;4.00;1.73;;;6.10;48.10;;;;;;5015457;28;20038;-85
2022/01/07 11:41:58;;;;;;;3.00;1.80;;;6.20;47.80;;;;;;5014730;28;20152;-86
2022/01/07 11:44:29;;;;;;;3.80;1.40;;;6.20;47.50;;;;;;4999169;28;20034;-85
2022/01/07 11:47:13;;;;;;;6.17;2.10;;;6.30;47.50;;;;;;5014347;28;20393;-85
2022/01/07 11:49:39;;;;;;;4.93;1.90;;;6.40;47.30;;;;;;5030731;28;20026;-85
2022/01/07 11:52:27;;;;;;;3.77;1.90;;;6.30;47.40;;;;;;5014210;28;20026;-86
2022/01/07 11:55:19;;;;;;;5.00;1.57;;;6.40;46.70;;;;;;5014564;28;20057;-85
2022/01/07 11:57:55;;;;;;;4.13;1.70;;;6.30;46.80;;;;;;5014843;28;20570;-85
2022/01/07 12:00:51;;;;;;;2.03;1.37;;;6.40;46.70;;;;;;5031019;28;20092;-86
2022/01/07 12:03:40;;;;;;;2.87;1.27;;;6.40;46.10;;;;;;5015314;28;20030;-85
2022/01/07 12:06:24;;;;;;;2.80;1.27;;;6.40;46.10;;;;;;5064074;28;20029;-85
2022/01/07 12:08:56;;;;;;;2.77;1.33;;;6.30;46.00;;;;;;5055600;28;20387;-85
2022/01/07 12:11:23;;;;;;;4.27;1.20;;;6.30;45.90;;;;;;5070834;28;20036;-85
2022/01/07 12:13:48;;;;;;;2.43;0.90;;;6.30;46.00;;;;;;5056372;28;20491;-85
2022/01/07 12:16:19;;;;;;;6.33;1.30;;;6.30;45.90;;;;;;5076444;28;20077;-85
2022/01/07 12:18:44;;;;;;;3.83;1.00;;;6.30;45.80;;;;;;5076881;28;20028;-85
2022/01/07 12:21:11;;;;;;;2.23;0.90;;;6.40;46.00;;;;;;5076763;28;20021;-84
2022/01/07 12:23:39;;;;;;;4.27;1.10;;;6.50;45.80;;;;;;5075562;28;20052;-85
2022/01/07 12:26:05;;;;;;;1.93;1.10;;;6.60;45.50;;;;;;5085517;28;20040;-83
2022/01/07 12:28:45;;;;;;;4.53;1.10;;;6.70;45.40;;;;;;5059620;28;20500;-85
2022/01/07 12:31:12;;;;;;;5.53;1.20;;;6.70;45.20;;;;;;5031290;28;20025;-85
2022/01/07 12:33:55;;;;;;;2.33;1.10;;;6.60;45.20;;;;;;5014350;28;20041;-85
2022/01/07 12:36:29;;;;;;;3.27;1.23;;;6.50;44.80;;;;;;5014903;28;20033;-85
2022/01/07 12:38:59;;;;;;;3.10;1.20;;;6.50;44.70;;;;;;5013748;28;20025;-85
2022/01/07 12:41:25;;;;;;;4.50;1.20;;;6.40;44.70;;;;;;5029740;28;20030;-85
2022/01/07 12:44:04;;;;;;;4.07;1.40;;;6.40;45.00;;;;;;4997461;28;20037;-85
2022/01/07 12:46:30;;;;;;;3.50;1.40;;;6.50;44.70;;;;;;5016013;28;20032;-85
2022/01/07 12:48:56;;;;;;;3.83;0.93;;;6.50;44.80;;;;;;5033203;28;20021;-85
2022/01/07 12:51:22;;;;;;;8.13;1.20;;;6.60;44.90;;;;;;5032920;28;20108;-85
2022/01/07 12:54:01;;;;;;;2.97;1.67;;;6.60;44.60;;;;;;5034325;28;20404;-85
2022/01/07 12:56:33;;;;;;;2.03;0.93;;;6.40;44.10;;;;;;5016380;28;20480;-85
2022/01/07 12:59:13;;;;;;;2.13;0.90;;;6.30;44.40;;;;;;5032255;28;20040;-85
2022/01/07 13:01:39;;;;;;;1.63;0.90;;;6.30;44.40;;;;;;5032572;28;20098;-85
2022/01/07 13:04:11;;;;;;;5.70;1.00;;;6.30;44.50;;;;;;5049235;28;20033;-85
2022/01/07 13:06:39;;;;;;;1.80;0.70;;;6.30;44.70;;;;;;5068345;28;20025;-85